createdAt,value
2022-09-06T00:01:29.258Z,10.90
2022-09-06T00:03:58.516Z,10.93
2022-09-06T00:06:26.388Z,9.67
2022-09-06T00:08:54.244Z,7.50
2022-09-06T00:11:22.531Z,7.33
2022-09-06T00:13:50.560Z,5.23
2022-09-06T00:16:20.880Z,5.60
2022-09-06T00:18:48.880Z,9.47
2022-09-06T00:21:21.263Z,7.87
2022-09-06T00:23:49.167Z,8.47
2022-09-06T00:26:17.310Z,10.40
2022-09-06T00:28:45.717Z,10.27
2022-09-06T00:31:15.962Z,7.63
2022-09-06T00:33:44.129Z,6.60
2022-09-06T00:36:13.486Z,4.73
2022-09-06T00:38:43.454Z,7.53
2022-09-06T00:41:14.232Z,6.20
2022-09-06T00:43:42.728Z,7.80
2022-09-06T00:46:13.267Z,3.90
2022-09-06T00:48:42.314Z,4.70
2022-09-06T00:51:13.681Z,7.80
2022-09-06T00:53:43.040Z,5.73
2022-09-06T00:56:11.334Z,4.90
2022-09-06T00:58:39.658Z,6.37
2022-09-06T01:01:08.050Z,4.77
2022-09-06T01:03:37.189Z,7.50
2022-09-06T01:06:15.994Z,3.53
2022-09-06T01:09:00.015Z,3.30
2022-09-06T01:11:57.348Z,4.03
2022-09-06T01:14:37.938Z,8.80
2022-09-06T01:17:17.695Z,6.30
2022-09-06T01:20:09.355Z,7.27
2022-09-06T01:22:58.493Z,7.90
2022-09-06T01:25:39.551Z,2.90
2022-09-06T01:28:28.941Z,7.10
2022-09-06T01:31:06.186Z,6.23
2022-09-06T01:33:42.527Z,7.10
2022-09-06T01:36:14.145Z,3.57
2022-09-06T01:38:42.338Z,2.30
2022-09-06T01:41:10.998Z,5.30
2022-09-06T01:43:43.470Z,5.27
2022-09-06T01:46:18.278Z,7.23
2022-09-06T01:49:05.788Z,3.13
2022-09-06T01:51:42.688Z,3.50
2022-09-06T01:54:27.330Z,4.97
2022-09-06T01:57:05.556Z,3.40
2022-09-06T01:59:58.639Z,5.10
2022-09-06T02:02:33.140Z,3.33
2022-09-06T02:05:04.797Z,4.80
2022-09-06T02:07:35.181Z,8.77
2022-09-06T02:10:09.449Z,3.20
2022-09-06T02:12:41.745Z,5.67
2022-09-06T02:15:15.651Z,4.63
2022-09-06T02:17:49.833Z,7.23
2022-09-06T02:20:21.677Z,7.67
2022-09-06T02:22:52.454Z,13.97
2022-09-06T02:25:25.640Z,5.53
2022-09-06T02:27:54.399Z,9.43
2022-09-06T02:30:24.113Z,5.63
2022-09-06T02:32:57.370Z,7.17
2022-09-06T02:35:25.492Z,7.40
2022-09-06T02:37:53.451Z,3.80
2022-09-06T02:40:21.610Z,4.20
2022-09-06T02:42:49.510Z,5.83
2022-09-06T02:45:17.420Z,2.93
2022-09-06T02:47:46.582Z,2.53
2022-09-06T02:50:15.320Z,4.70
2022-09-06T02:52:43.187Z,4.33
2022-09-06T02:55:11.300Z,3.37
2022-09-06T02:57:39.435Z,3.30
2022-09-06T03:00:08.524Z,4.60
2022-09-06T03:02:36.535Z,3.77
2022-09-06T03:05:06.621Z,2.33
2022-09-06T03:07:34.530Z,7.07
2022-09-06T03:10:02.494Z,5.03
2022-09-06T03:12:30.279Z,5.03
2022-09-06T03:14:58.212Z,3.27
2022-09-06T03:17:26.136Z,3.73
2022-09-06T03:19:54.351Z,4.70
2022-09-06T03:22:23.618Z,3.83
2022-09-06T03:24:51.767Z,3.10
2022-09-06T03:27:19.703Z,3.83
2022-09-06T03:29:48.042Z,7.80
2022-09-06T03:32:16.246Z,3.20
2022-09-06T03:34:44.131Z,5.17
2022-09-06T03:37:12.285Z,7.63
2022-09-06T03:39:41.751Z,3.20
2022-09-06T03:42:09.781Z,3.07
2022-09-06T03:44:37.872Z,3.33
2022-09-06T03:47:06.440Z,8.07
2022-09-06T03:49:34.367Z,3.77
2022-09-06T03:52:02.782Z,4.47
2022-09-06T03:54:30.851Z,7.90
2022-09-06T03:57:00.093Z,5.40
2022-09-06T03:59:28.004Z,5.73
2022-09-06T04:01:56.007Z,5.97
2022-09-06T04:04:23.994Z,4.23
2022-09-06T04:06:51.834Z,4.57
2022-09-06T04:09:19.790Z,5.43
2022-09-06T04:11:47.736Z,7.07
2022-09-06T04:14:17.061Z,4.80
2022-09-06T04:16:45.020Z,5.13
2022-09-06T04:19:13.039Z,4.23
2022-09-06T04:21:40.902Z,3.87
2022-09-06T04:24:09.008Z,4.00
2022-09-06T04:26:36.883Z,6.30
2022-09-06T04:29:05.015Z,3.37
2022-09-06T04:31:34.850Z,6.00
2022-09-06T04:34:02.751Z,8.90
2022-09-06T04:36:30.642Z,7.90
2022-09-06T04:38:58.503Z,7.67
2022-09-06T04:41:26.400Z,7.00
2022-09-06T04:43:54.399Z,4.20
2022-09-06T04:46:24.913Z,6.33
2022-09-06T04:48:55.465Z,5.73
2022-09-06T04:51:24.643Z,7.87
2022-09-06T04:53:52.786Z,9.67
2022-09-06T04:56:23.097Z,10.23
2022-09-06T04:58:53.762Z,12.87
2022-09-06T05:01:21.760Z,7.63
2022-09-06T05:03:52.175Z,4.23
2022-09-06T05:06:25.525Z,5.80
2022-09-06T05:08:53.839Z,7.43
2022-09-06T05:11:21.733Z,11.27
2022-09-06T05:16:18.310Z,7.17
2022-09-06T05:18:46.259Z,4.57
2022-09-06T05:21:14.198Z,10.17
2022-09-06T05:23:43.990Z,4.57
2022-09-06T05:26:12.084Z,9.77
2022-09-06T05:28:39.955Z,8.17
2022-09-06T05:31:10.695Z,6.17
2022-09-06T05:33:39.271Z,8.20
2022-09-06T05:36:08.186Z,10.00
2022-09-06T05:38:36.394Z,12.40
2022-09-06T05:41:06.032Z,12.50
2022-09-06T05:43:34.024Z,16.67
2022-09-06T05:46:02.135Z,13.87
2022-09-06T05:48:36.055Z,17.70
2022-09-06T05:51:07.007Z,13.37
2022-09-06T05:53:36.491Z,13.07
2022-09-06T05:56:07.017Z,16.63
2022-09-06T05:58:34.997Z,11.80
2022-09-06T06:01:08.054Z,9.07
2022-09-06T06:03:36.031Z,12.97
2022-09-06T06:06:03.973Z,10.97
2022-09-06T06:08:32.046Z,7.53
2022-09-06T06:11:01.403Z,8.17
2022-09-06T06:13:35.148Z,9.50
2022-09-06T06:16:04.423Z,9.30
2022-09-06T06:18:32.400Z,9.77
2022-09-06T06:21:12.308Z,6.97
2022-09-06T06:23:41.505Z,6.57
2022-09-06T06:26:10.937Z,7.50
2022-09-06T06:28:41.009Z,12.63
2022-09-06T06:31:12.127Z,10.37
2022-09-06T06:33:40.881Z,10.13
2022-09-06T06:36:21.723Z,6.40
2022-09-06T06:38:50.907Z,12.43
2022-09-06T06:41:21.314Z,9.50
2022-09-06T06:43:53.164Z,9.93
2022-09-06T06:46:22.265Z,16.43
2022-09-06T06:48:54.555Z,24.30
2022-09-06T06:51:25.677Z,9.03
2022-09-06T06:53:54.069Z,12.63
2022-09-06T06:56:24.774Z,11.40
2022-09-06T06:58:57.638Z,10.13
2022-09-06T07:01:27.412Z,13.00
2022-09-06T07:03:55.772Z,12.83
2022-09-06T07:09:12.729Z,8.00
2022-09-06T07:11:40.660Z,11.47
2022-09-06T07:14:09.971Z,9.53
2022-09-06T07:16:37.902Z,10.73
2022-09-06T07:19:05.994Z,12.13
2022-09-06T07:21:37.503Z,8.13
2022-09-06T07:24:09.246Z,6.00
2022-09-06T07:26:39.700Z,5.20
2022-09-06T07:29:09.804Z,7.30
2022-09-06T07:34:27.089Z,3.93
2022-09-06T07:36:55.121Z,7.40
2022-09-06T07:39:24.426Z,4.60
2022-09-06T07:41:52.372Z,5.70
2022-09-06T07:44:21.640Z,6.30
2022-09-06T07:46:50.033Z,9.60
2022-09-06T07:49:18.113Z,6.10
2022-09-06T07:51:46.025Z,2.97
2022-09-06T07:54:30.030Z,2.43
2022-09-06T07:56:58.608Z,5.83
2022-09-06T07:59:28.120Z,4.73
2022-09-06T08:01:56.121Z,4.70
2022-09-06T08:04:24.196Z,6.17
2022-09-06T08:09:41.578Z,4.10
2022-09-06T08:12:09.773Z,6.23
2022-09-06T08:14:39.199Z,4.27
2022-09-06T08:17:07.228Z,4.90
2022-09-06T08:19:35.512Z,4.40
2022-09-06T08:22:03.529Z,3.17
2022-09-06T08:24:31.765Z,3.83
2022-09-06T08:26:59.726Z,4.37
2022-09-06T08:29:27.904Z,5.87
2022-09-06T08:31:57.375Z,8.47
2022-09-06T08:34:25.466Z,8.63
2022-09-06T08:36:53.571Z,2.60
2022-09-06T08:39:21.820Z,9.13
2022-09-06T08:41:54.176Z,5.40
2022-09-06T08:47:15.859Z,4.87
2022-09-06T08:49:46.230Z,4.03
2022-09-06T08:53:06.222Z,5.63
2022-09-06T08:55:38.192Z,4.23
2022-09-06T08:58:29.055Z,5.77
2022-09-06T09:01:01.891Z,3.23
2022-09-06T09:03:34.262Z,7.63
2022-09-06T09:06:05.314Z,12.03
2022-09-06T09:08:40.845Z,2.13
2022-09-06T09:11:11.490Z,9.03
2022-09-06T09:13:44.801Z,4.80
2022-09-06T09:16:12.851Z,2.80
2022-09-06T09:18:45.567Z,4.50
2022-09-06T09:21:14.580Z,1.83
2022-09-06T09:23:42.588Z,3.15
2022-09-06T09:26:15.236Z,5.00
2022-09-06T09:29:04.857Z,5.43
2022-09-06T09:31:38.617Z,4.27
2022-09-06T09:34:12.416Z,2.33
2022-09-06T09:36:41.235Z,5.20
2022-09-06T09:39:13.033Z,6.07
2022-09-06T09:41:43.677Z,4.63
2022-09-06T09:44:18.514Z,2.42
2022-09-06T09:46:46.618Z,3.45
2022-09-06T09:49:28.958Z,2.88
2022-09-06T09:52:07.177Z,3.10
2022-09-06T09:54:38.507Z,3.33
2022-09-06T09:57:11.858Z,5.05
2022-09-06T09:59:45.383Z,6.57
2022-09-06T10:02:23.145Z,3.92
2022-09-06T10:04:54.936Z,3.25
2022-09-06T10:07:24.839Z,1.60
2022-09-06T10:10:00.290Z,2.35
2022-09-06T10:12:32.456Z,3.40
2022-09-06T10:15:02.488Z,3.00
2022-09-06T10:17:34.561Z,2.40
2022-09-06T10:20:08.673Z,4.65
2022-09-06T10:22:47.152Z,2.67
2022-09-06T10:25:49.701Z,1.88
2022-09-06T10:28:36.470Z,2.22
2022-09-06T10:31:31.783Z,3.22
2022-09-06T10:34:08.691Z,5.80
2022-09-06T10:36:40.831Z,5.07
2022-09-06T10:39:24.068Z,7.32
2022-09-06T10:42:10.112Z,4.13
2022-09-06T10:44:55.488Z,2.55
2022-09-06T10:47:33.465Z,3.95
2022-09-06T10:50:05.102Z,2.42
2022-09-06T10:52:40.177Z,3.72
2022-09-06T10:55:12.663Z,3.20
2022-09-06T11:00:37.076Z,3.03
2022-09-06T11:06:08.501Z,3.50
2022-09-06T11:11:23.254Z,3.72
2022-09-06T11:13:51.381Z,4.68
2022-09-06T11:16:23.713Z,2.25
2022-09-06T11:18:57.915Z,4.05
2022-09-06T11:21:48.071Z,4.10
2022-09-06T11:24:26.019Z,7.97
2022-09-06T11:27:02.806Z,5.72
2022-09-06T11:29:33.345Z,5.47
2022-09-06T11:32:18.647Z,1.88
2022-09-06T11:34:55.900Z,6.78
2022-09-06T11:37:27.335Z,4.17
2022-09-06T11:43:13.850Z,2.42
2022-09-06T11:45:45.452Z,2.92
2022-09-06T11:48:49.463Z,3.17
2022-09-06T11:51:36.761Z,6.15
2022-09-06T11:54:28.061Z,1.90
2022-09-06T11:57:02.174Z,2.70
2022-09-06T11:59:49.127Z,2.22
2022-09-06T12:02:36.347Z,3.10
2022-09-06T12:05:23.408Z,5.50
2022-09-06T12:08:34.145Z,2.30
2022-09-06T12:11:27.052Z,4.32
2022-09-06T12:14:03.092Z,2.67
2022-09-06T12:17:08.924Z,4.03
2022-09-06T12:19:44.289Z,2.65
2022-09-06T12:22:53.174Z,2.88
2022-09-06T12:25:54.706Z,2.28
2022-09-06T12:28:41.547Z,4.65
2022-09-06T12:31:31.957Z,3.72
2022-09-06T12:34:06.340Z,2.83
2022-09-06T12:36:34.682Z,4.57
2022-09-06T12:39:05.663Z,1.52
2022-09-06T12:41:43.255Z,2.20
2022-09-06T12:44:12.946Z,3.08
2022-09-06T12:46:48.674Z,4.05
2022-09-06T12:49:20.448Z,5.15
2022-09-06T12:51:48.749Z,3.83
2022-09-06T12:54:21.857Z,5.47
2022-09-06T12:56:50.418Z,3.10
2022-09-06T12:59:20.567Z,2.90
2022-09-06T13:01:57.319Z,4.18
2022-09-06T13:04:33.863Z,4.55
2022-09-06T13:07:04.193Z,4.00
2022-09-06T13:09:33.186Z,4.18
2022-09-06T13:12:07.847Z,4.32
2022-09-06T13:14:36.685Z,5.45
2022-09-06T13:17:06.102Z,3.17
2022-09-06T13:19:36.149Z,5.05
2022-09-06T13:22:07.431Z,6.28
2022-09-06T13:24:47.123Z,7.95
2022-09-06T13:27:26.601Z,4.53
2022-09-06T13:29:59.461Z,4.75
2022-09-06T13:32:29.488Z,7.75
2022-09-06T13:34:59.719Z,5.13
2022-09-06T13:37:29.663Z,4.93
2022-09-06T13:39:58.643Z,3.53
2022-09-06T13:42:29.453Z,3.55
2022-09-06T13:45:02.132Z,3.95
2022-09-06T13:47:31.946Z,2.58
2022-09-06T13:50:00.367Z,3.35
2022-09-06T13:52:28.383Z,9.25
2022-09-06T13:54:56.369Z,6.60
2022-09-06T13:57:24.801Z,3.20
2022-09-06T13:59:52.737Z,4.57
2022-09-06T14:02:20.909Z,4.43
2022-09-06T14:04:50.154Z,4.43
2022-09-06T14:07:18.081Z,3.45
2022-09-06T14:09:45.987Z,3.63
2022-09-06T14:12:13.928Z,4.55
2022-09-06T14:14:42.114Z,3.53
2022-09-06T14:17:10.283Z,2.28
2022-09-06T14:19:38.307Z,3.55
2022-09-06T14:22:08.310Z,5.28
2022-09-06T14:24:36.346Z,4.53
2022-09-06T14:27:05.488Z,2.97
2022-09-06T14:29:34.336Z,5.45
2022-09-06T14:32:02.759Z,3.50
2022-09-06T14:34:31.059Z,4.47
2022-09-06T14:36:58.874Z,4.50
2022-09-06T14:39:28.356Z,3.38
2022-09-06T14:41:56.364Z,3.70
2022-09-06T14:44:24.377Z,4.30
2022-09-06T14:46:53.435Z,4.47
2022-09-06T14:49:21.656Z,5.78
2022-09-06T14:51:49.670Z,2.60
2022-09-06T14:54:18.733Z,4.93
2022-09-06T14:56:48.239Z,2.15
2022-09-06T14:59:16.631Z,3.20
2022-09-06T15:01:44.779Z,2.63
2022-09-06T15:04:13.127Z,3.72
2022-09-06T15:06:47.202Z,9.85
2022-09-06T15:09:16.089Z,4.53
2022-09-06T15:11:46.252Z,6.32
2022-09-06T15:14:17.856Z,4.22
2022-09-06T15:16:46.044Z,3.63
2022-09-06T15:19:14.503Z,4.78
2022-09-06T15:21:45.527Z,6.20
2022-09-06T15:24:13.837Z,5.13
2022-09-06T15:26:43.218Z,6.97
2022-09-06T15:29:12.690Z,6.68
2022-09-06T15:31:43.126Z,3.33
2022-09-06T15:34:12.033Z,3.47
2022-09-06T15:36:40.066Z,4.45
2022-09-06T15:39:08.008Z,4.00
2022-09-06T15:41:39.625Z,5.78
2022-09-06T15:44:10.589Z,5.78
2022-09-06T15:46:45.848Z,6.97
2022-09-06T15:49:15.835Z,4.15
2022-09-06T15:51:44.613Z,4.00
2022-09-06T15:54:14.021Z,3.88
2022-09-06T15:56:41.511Z,2.65
2022-09-06T15:59:09.781Z,3.08
2022-09-06T16:01:38.076Z,5.60
2022-09-06T16:04:07.771Z,6.13
2022-09-06T16:06:38.499Z,3.75
2022-09-06T16:09:08.053Z,4.40
2022-09-06T16:11:36.946Z,4.72
2022-09-06T16:14:06.696Z,7.88
2022-09-06T16:16:35.138Z,4.53
2022-09-06T16:19:03.183Z,7.07
2022-09-06T16:21:34.377Z,5.72
2022-09-06T16:24:04.625Z,7.10
2022-09-06T16:26:34.335Z,3.42
2022-09-06T16:29:04.479Z,5.00
2022-09-06T16:31:39.176Z,6.35
2022-09-06T16:34:08.426Z,4.63
2022-09-06T16:36:38.697Z,4.03
2022-09-06T16:39:07.659Z,8.65
2022-09-06T16:41:40.370Z,4.63
2022-09-06T16:44:08.879Z,8.10
2022-09-06T16:46:39.961Z,8.68
2022-09-06T16:49:08.264Z,8.43
2022-09-06T16:51:37.887Z,11.43
2022-09-06T16:54:06.109Z,12.55
2022-09-06T16:56:35.928Z,5.50
2022-09-06T16:59:15.161Z,3.60
2022-09-06T17:01:44.456Z,5.93
2022-09-06T17:04:14.262Z,9.43
2022-09-06T17:09:31.205Z,10.52
2022-09-06T17:11:59.263Z,5.15
2022-09-06T17:14:28.043Z,8.57
2022-09-06T17:17:04.829Z,10.77
2022-09-06T17:19:36.850Z,6.70
2022-09-06T17:22:06.468Z,15.27
2022-09-06T17:24:34.739Z,8.53
2022-09-06T17:27:02.987Z,12.33
2022-09-06T17:29:31.281Z,11.57
2022-09-06T17:31:59.502Z,13.97
2022-09-06T17:34:28.116Z,8.50
2022-09-06T17:36:56.602Z,10.17
2022-09-06T17:39:29.023Z,11.47
2022-09-06T17:41:58.826Z,9.57
2022-09-06T17:44:27.794Z,6.47
2022-09-06T17:47:12.113Z,9.83
2022-09-06T17:49:41.218Z,11.10
2022-09-06T17:52:09.599Z,8.10
2022-09-06T17:54:39.092Z,7.83
2022-09-06T17:57:07.151Z,8.00
2022-09-06T17:59:36.105Z,11.03
2022-09-06T18:02:04.897Z,9.47
2022-09-06T18:04:32.916Z,7.70
2022-09-06T18:07:00.945Z,7.43
2022-09-06T18:09:29.131Z,10.13
2022-09-06T18:11:59.137Z,13.17
2022-09-06T18:14:28.553Z,7.73
2022-09-06T18:16:56.966Z,7.27
2022-09-06T18:19:25.659Z,8.00
2022-09-06T18:21:54.174Z,5.57
2022-09-06T18:24:22.239Z,5.60
2022-09-06T18:26:50.383Z,7.87
2022-09-06T18:29:20.802Z,8.57
2022-09-06T18:31:48.934Z,11.00
2022-09-06T18:34:17.160Z,11.23
2022-09-06T18:36:45.331Z,7.63
2022-09-06T18:39:13.474Z,8.07
2022-09-06T18:41:58.889Z,10.73
2022-09-06T18:44:32.270Z,10.47
2022-09-06T18:47:02.221Z,8.20
2022-09-06T18:49:32.345Z,10.33
2022-09-06T18:52:01.113Z,7.90
2022-09-06T18:54:29.478Z,7.67
2022-09-06T18:56:57.758Z,6.43
2022-09-06T18:59:26.229Z,8.10
2022-09-06T19:01:55.749Z,12.10
2022-09-06T19:04:24.155Z,9.37
2022-09-06T19:06:52.208Z,8.07
2022-09-06T19:09:20.386Z,10.37
2022-09-06T19:11:51.544Z,8.57
2022-09-06T19:14:19.864Z,5.53
2022-09-06T19:16:50.034Z,9.37
2022-09-06T19:19:19.625Z,10.57
2022-09-06T19:21:47.642Z,9.07
2022-09-06T19:24:16.279Z,9.27
2022-09-06T19:26:45.453Z,5.00
2022-09-06T19:29:15.561Z,8.50
2022-09-06T19:31:44.898Z,9.70
2022-09-06T19:34:15.726Z,7.23
2022-09-06T19:36:45.915Z,10.93
2022-09-06T19:39:15.891Z,8.80
2022-09-06T19:41:46.587Z,8.23
2022-09-06T19:44:15.358Z,8.50
2022-09-06T19:46:46.185Z,9.53
2022-09-06T19:49:15.310Z,10.40
2022-09-06T19:51:45.214Z,11.63
2022-09-06T19:54:15.570Z,10.37
2022-09-06T19:56:44.478Z,8.17
2022-09-06T19:59:13.449Z,8.83
2022-09-06T20:01:43.214Z,11.17
2022-09-06T20:04:13.008Z,9.60
2022-09-06T20:06:41.267Z,10.80
2022-09-06T20:09:10.622Z,6.13
2022-09-06T20:11:41.349Z,8.73
2022-09-06T20:14:09.876Z,8.97
2022-09-06T20:16:41.710Z,8.73
2022-09-06T20:19:12.979Z,6.57
2022-09-06T20:21:41.301Z,7.40
2022-09-06T20:24:09.570Z,7.57
2022-09-06T20:26:38.886Z,8.43
2022-09-06T20:29:07.955Z,10.43
2022-09-06T20:31:37.872Z,5.60
2022-09-06T20:34:07.394Z,8.30
2022-09-06T20:36:35.581Z,9.00
2022-09-06T20:39:04.893Z,8.97
2022-09-06T20:41:33.724Z,9.67
2022-09-06T20:44:03.684Z,8.20
2022-09-06T20:46:33.816Z,5.83
2022-09-06T20:49:04.749Z,3.80
2022-09-06T20:51:34.092Z,6.87
2022-09-06T20:54:02.759Z,7.70
2022-09-06T20:56:33.154Z,5.03
2022-09-06T20:59:04.585Z,5.53
2022-09-06T21:01:36.017Z,6.10
2022-09-06T21:04:05.994Z,8.43
2022-09-06T21:06:35.536Z,7.27
2022-09-06T21:09:04.801Z,7.63
2022-09-06T21:11:33.160Z,6.37
2022-09-06T21:14:01.259Z,7.43
2022-09-06T21:16:31.417Z,9.30
2022-09-06T21:19:01.413Z,9.57
2022-09-06T21:21:30.961Z,10.47
2022-09-06T21:24:00.598Z,9.10
2022-09-06T21:26:28.533Z,11.10
2022-09-06T21:28:56.447Z,7.00
2022-09-06T21:31:25.909Z,8.70
2022-09-06T21:33:56.874Z,8.30
2022-09-06T21:36:29.155Z,6.60
2022-09-06T21:38:59.129Z,6.97
2022-09-06T21:41:28.079Z,6.60
2022-09-06T21:43:58.126Z,8.90
2022-09-06T21:46:32.315Z,7.57
2022-09-06T21:49:04.346Z,5.93
2022-09-06T21:51:33.457Z,7.50
2022-09-06T21:54:04.796Z,8.20
2022-09-06T21:56:33.886Z,9.70
2022-09-06T21:59:01.910Z,11.93
2022-09-06T22:01:32.619Z,10.70
2022-09-06T22:04:02.281Z,8.77
2022-09-06T22:06:32.119Z,7.37
2022-09-06T22:09:01.801Z,6.17
2022-09-06T22:11:31.943Z,6.60
2022-09-06T22:14:00.877Z,8.73
2022-09-06T22:16:29.450Z,10.47
2022-09-06T22:21:45.467Z,7.77
2022-09-06T22:24:14.243Z,8.97
2022-09-06T22:26:43.061Z,7.47
2022-09-06T22:29:13.596Z,5.87
2022-09-06T22:31:41.903Z,10.13
2022-09-06T22:34:10.344Z,8.73
2022-09-06T22:36:39.002Z,10.17
2022-09-06T22:39:09.445Z,8.37
2022-09-06T22:41:37.831Z,9.47
2022-09-06T22:44:06.062Z,7.40
2022-09-06T22:46:34.388Z,8.03
2022-09-06T22:49:04.033Z,10.03
2022-09-06T22:51:32.062Z,8.80
2022-09-06T22:54:00.056Z,9.00
2022-09-06T22:56:29.358Z,9.33
2022-09-06T22:58:57.435Z,7.70
2022-09-06T23:01:25.932Z,8.53
2022-09-06T23:03:54.017Z,11.53
2022-09-06T23:06:22.374Z,7.57
2022-09-06T23:08:50.366Z,7.23
2022-09-06T23:11:19.662Z,9.33
2022-09-06T23:13:48.937Z,9.27
2022-09-06T23:16:19.626Z,7.47
2022-09-06T23:18:48.450Z,6.57
2022-09-06T23:21:19.423Z,10.00
2022-09-06T23:23:48.257Z,7.00
2022-09-06T23:26:17.809Z,7.30
2022-09-06T23:28:45.979Z,9.67
2022-09-06T23:31:16.757Z,9.87
2022-09-06T23:33:45.304Z,9.53
2022-09-06T23:36:14.689Z,8.33
2022-09-06T23:38:43.706Z,10.83
2022-09-06T23:41:12.234Z,6.87
2022-09-06T23:43:41.653Z,7.97
2022-09-06T23:46:11.285Z,8.20
2022-09-06T23:48:40.965Z,9.47
2022-09-06T23:51:09.152Z,13.13
2022-09-06T23:53:37.345Z,7.30
2022-09-06T23:56:05.769Z,8.53
2022-09-06T23:58:33.837Z,8.67
